Latest Weather Observations for Oodnadatta

IDS60801

Issued at 3:05 pm CST Wednesday 23 July 2014 (issued every 30 minutes, with the page automatically refreshed every 10 minutes)

About weather observations | Map of weather stations | Latest weather observations for SA | Other Formats
Station Details ID: 017043 Name: OODNADATTA AIRPORT Lat: -27.56 Lon: 135.45 Height: 116.5 m
Data from the previous 72 hours. | See also: Recent months at Oodnadatta
Date/Time
CST
Temp
°C
App
Temp
°C
Dew
Point
Rel
Hum
%
Delta-T
°C
Wind Press
QNH
hPa
Press
MSL
hPa
Rain
since 9 am
mm
Dir
 
Spd
km/h
Gust
km/h
Spd
kts
Gust
kts
23/03:02pm 25.5 17.6 2.2 22 11.3 WNW 33 54 18 29 1010.2 - 0.0
23/03:00pm 25.2 17.3 1.3 21 11.4 WNW 32 43 17 23 1010.5 1010.6 0.0
23/02:33pm 26.0 17.2 -0.9 17 12.3 NW 35 54 19 29 1010.6 - 0.0
23/02:30pm 25.8 16.6 -1.1 17 12.3 NNW 37 54 20 29 1010.6 - 0.0
23/02:00pm 25.4 15.8 -1.4 17 12.1 NNW 39 50 21 27 1011.0 - 0.0
23/01:30pm 24.7 14.7 -2.0 17 11.9 NNW 41 57 22 31 1011.4 - 0.0
23/01:00pm 24.9 14.2 -2.6 16 12.1 N 44 57 24 31 1012.0 - 0.0
23/12:30pm 23.8 13.1 -2.7 17 11.5 N 44 59 24 32 1012.8 - 0.0
23/12:00pm 23.4 12.3 -3.0 17 11.4 N 46 57 25 31 1013.6 1013.6 0.0
23/11:30am 23.2 12.7 -2.4 18 11.2 N 43 57 23 31 1014.1 - 0.0
23/11:00am 22.1 11.7 -1.9 20 10.5 N 43 57 23 31 1014.6 - 0.0
23/10:30am 21.8 11.9 -0.8 22 10.0 N 41 56 22 30 1014.9 - 0.0
23/10:00am 20.6 10.1 -1.2 23 9.5 N 44 56 24 30 1015.0 - 0.0
23/09:30am 19.5 9.2 -1.0 25 8.9 N 43 57 23 31 1014.9 - 0.0
23/09:18am 19.0 9.9 -0.9 26 8.6 N 37 57 20 31 1015.0 - 0.0
23/09:00am 18.5 10.3 -0.8 27 8.3 NNE 32 43 17 23 1015.2 1015.2 0.0
23/08:30am 17.9 9.9 0.6 31 7.6 NNE 32 41 17 22 1015.4 - 0.0
23/08:00am 17.3 10.4 2.5 37 6.8 NNE 28 37 15 20 1015.7 - 0.0
23/07:30am 17.3 11.2 2.9 38 6.6 NNE 24 33 13 18 1015.7 - 0.0
23/07:00am 16.7 11.9 2.7 39 6.4 N 17 22 9 12 1015.6 - 0.0
23/06:30am 16.8 11.8 1.3 35 6.9 N 17 24 9 13 1015.3 - 0.0
23/06:00am 17.2 11.1 0.4 32 7.3 NNE 22 30 12 16 1015.4 1015.4 0.0
23/05:30am 16.7 11.2 0.8 34 7.0 N 19 22 10 12 1015.7 - 0.0
23/05:00am 16.9 10.4 0.1 32 7.3 NNE 24 30 13 16 1015.6 - 0.0
23/04:30am 17.2 10.6 -0.1 31 7.5 NNE 24 32 13 17 1015.6 - 0.0
23/04:00am 17.9 11.9 -1.9 26 8.3 N 20 28 11 15 1016.2 - 0.0
23/03:30am 17.9 12.0 -1.9 26 8.3 NNE 19 24 10 13 1016.1 - 0.0
23/03:00am 17.8 11.9 -0.5 29 7.9 NE 20 24 11 13 1016.2 1016.2 0.0
23/02:30am 17.3 13.4 0.9 33 7.3 NE 11 17 6 9 1016.4 - 0.0
23/02:00am 17.1 15.1 2.3 37 6.7 ENE 2 6 1 3 1016.9 - 0.0
23/01:30am 17.7 13.3 2.5 36 7.0 ENE 15 17 8 9 1016.9 - 0.0
23/01:00am 18.7 13.9 2.5 34 7.5 ENE 17 19 9 10 1017.0 - 0.0
23/12:30am 19.9 15.1 2.7 32 8.1 ENE 17 20 9 11 1017.3 - 0.0
23/12:00am 21.5 16.1 2.7 29 8.9 NE 20 33 11 18 1017.8 1017.9 0.0
 
Date/Time
CST
Temp
°C
App
Temp
°C
Dew
Point
Rel
Hum
%
Delta-T
°C
Wind Press
QNH
hPa
Press
MSL
hPa
Rain
since 9 am
mm
Dir
 
Spd
km/h
Gust
km/h
Spd
kts
Gust
kts
22/11:30pm 20.6 14.9 -0.7 24 9.4 N 19 26 10 14 1018.5 - 0.0
22/11:00pm 20.4 15.0 -1.4 23 9.4 ENE 17 24 9 13 1018.9 - 0.0
22/10:30pm 20.4 15.3 -2.0 22 9.6 NE 15 19 8 10 1018.9 - 0.0
22/10:00pm 21.2 15.3 -2.0 21 10.0 NE 19 24 10 13 1018.7 - 0.0
22/09:30pm 21.2 14.9 -1.3 22 9.8 NE 22 33 12 18 1018.7 - 0.0
22/09:00pm 21.0 15.2 -1.5 22 9.8 NE 19 20 10 11 1018.2 1018.3 0.0
22/08:30pm 21.1 15.3 -1.4 22 9.8 NE 19 22 10 12 1017.9 - 0.0
22/08:00pm 21.4 16.0 -1.2 22 9.9 NE 17 20 9 11 1017.8 - 0.0
22/07:30pm 21.7 16.4 -0.9 22 10.0 NE 17 19 9 10 1017.6 - 0.0
22/07:00pm 22.2 17.3 -0.5 22 10.2 NE 15 19 8 10 1017.5 - 0.0
22/06:30pm 22.9 17.6 -0.6 21 10.6 NNE 17 20 9 11 1017.0 - 0.0
22/06:00pm 23.5 17.6 -0.7 20 10.9 NE 20 28 11 15 1016.4 1016.4 0.0
22/05:30pm 24.0 17.4 -0.3 20 11.1 NNE 24 30 13 16 1015.9 - 0.0
22/05:00pm 24.5 17.6 0.1 20 11.3 NNE 26 33 14 18 1016.4 - 0.0
22/04:30pm 24.9 17.9 -0.3 19 11.6 NNE 26 35 14 19 1015.9 - 0.0
22/04:00pm 24.9 18.3 -0.3 19 11.6 N 24 33 13 18 1015.8 - 0.0
22/03:30pm 25.2 18.7 0.0 19 11.7 N 24 35 13 19 1015.9 - 0.0
22/03:00pm 25.6 19.0 -0.5 18 12.0 N 24 35 13 19 1016.3 1016.3 0.0
22/02:30pm 26.0 18.9 -0.9 17 12.3 N 26 39 14 21 1016.6 - 0.0
22/02:00pm 25.5 18.8 -1.3 17 12.1 N 24 35 13 19 1017.1 - 0.0
22/01:30pm 25.2 18.5 -0.8 18 11.9 N 24 35 13 19 1017.2 - 0.0
22/01:00pm 24.7 18.0 -1.2 18 11.7 N 24 33 13 18 1018.2 - 0.0
22/12:30pm 23.8 17.1 -1.2 19 11.2 N 24 32 13 17 1018.9 - 0.0
22/12:00pm 23.2 16.5 -1.0 20 10.8 N 24 32 13 17 1019.6 1019.7 0.0
22/11:30am 22.2 15.5 -1.1 21 10.3 N 24 32 13 17 1020.5 - 0.0
22/11:00am 22.2 15.5 -1.1 21 10.3 N 24 35 13 19 1021.2 - 0.0
22/10:30am 20.4 13.7 -0.8 24 9.3 N 24 32 13 17 1021.9 - 0.0
22/10:00am 19.1 12.7 -1.4 25 8.8 N 22 26 12 14 1022.1 - 0.0
22/09:30am 17.8 11.8 -1.4 27 8.1 N 20 26 11 14 1022.0 - 0.0
22/09:00am 16.0 10.5 -2.0 29 7.4 NNE 17 20 9 11 1021.7 1021.7 0.0
22/08:30am 14.2 9.4 -2.2 32 6.6 NNE 13 17 7 9 1021.6 - 0.0
22/08:00am 12.3 7.1 -3.1 34 5.9 NNE 15 19 8 10 1021.3 - 0.0
22/07:30am 11.4 6.2 -3.1 36 5.5 NNE 15 19 8 10 1021.2 - 0.0
22/07:00am 11.8 6.2 -3.1 35 5.7 NNE 17 20 9 11 1021.1 - 0.0
22/06:30am 12.1 7.2 -3.3 34 5.9 NNE 13 15 7 8 1020.7 - 0.0
22/06:00am 12.6 7.3 -3.2 33 6.1 N 15 19 8 10 1020.3 1020.3 0.0
22/05:30am 12.7 7.5 -3.1 33 6.1 NNE 15 19 8 10 1020.0 - 0.0
22/05:00am 12.7 7.1 -3.1 33 6.1 NNE 17 22 9 12 1019.7 - 0.0
22/04:30am 12.0 6.0 -3.4 34 5.9 NNE 19 20 10 11 1019.6 - 0.0
22/04:00am 11.9 6.7 -3.1 35 5.8 NE 15 19 8 10 1019.4 - 0.0
22/03:30am 11.4 6.9 -3.5 35 5.6 ENE 11 13 6 7 1019.5 - 0.0
22/03:00am 11.3 7.2 -3.2 36 5.5 NE 9 11 5 6 1019.4 1019.5 0.0
22/02:30am 11.9 7.5 -2.7 36 5.7 E 11 15 6 8 1019.5 - 0.0
22/02:00am 11.9 7.0 -3.1 35 5.8 ENE 13 15 7 8 1019.5 - 0.0
22/01:30am 11.9 7.8 -3.1 35 5.8 E 9 11 5 6 1019.6 - 0.0
22/01:00am 12.5 7.7 -2.9 34 6.0 NE 13 15 7 8 1019.5 - 0.0
22/12:30am 13.2 9.1 -2.7 33 6.3 ENE 9 9 5 5 1019.6 - 0.0
22/12:00am 13.8 8.6 -3.0 31 6.6 NE 15 19 8 10 1019.6 1019.7 0.0
 
Date/Time
CST
Temp
°C
App
Temp
°C
Dew
Point
Rel
Hum
%
Delta-T
°C
Wind Press
QNH
hPa
Press
MSL
hPa
Rain
since 9 am
mm
Dir
 
Spd
km/h
Gust
km/h
Spd
kts
Gust
kts
21/11:30pm 14.9 9.0 -2.5 30 7.0 NE 19 20 10 11 1019.6 - 0.0
21/11:00pm 15.7 9.9 -1.8 30 7.2 NE 19 24 10 13 1019.7 - 0.0
21/10:30pm 16.4 10.0 -1.7 29 7.5 NE 22 24 12 13 1019.7 - 0.0
21/10:00pm 16.5 10.5 -1.6 29 7.5 NE 20 24 11 13 1019.6 - 0.0
21/09:30pm 17.2 10.8 -1.4 28 7.8 NE 22 26 12 14 1019.5 - 0.0
21/09:00pm 17.6 11.2 -1.6 27 8.1 NE 22 26 12 14 1019.4 1019.5 0.0
21/08:30pm 18.4 12.0 -1.4 26 8.4 NE 22 26 12 14 1019.3 - 0.0
21/08:00pm 18.4 12.5 -0.9 27 8.3 NE 20 26 11 14 1019.0 - 0.0
21/07:30pm 18.1 12.4 -0.7 28 8.1 ENE 19 20 10 11 1018.8 - 0.0
21/07:00pm 18.6 12.9 -0.7 27 8.4 ENE 19 19 10 10 1018.4 - 0.0
21/06:30pm 19.9 15.0 -0.7 25 9.0 E 15 17 8 9 1018.0 - 0.0
21/06:00pm 22.5 19.1 -0.3 22 10.3 SW 7 9 4 5 1017.8 1017.9 0.0
21/05:30pm 24.4 21.7 0.0 20 11.2 WSW 4 6 2 3 1017.5 - 0.0
21/05:00pm 25.8 23.9 0.5 19 11.9 CALM 0 6 0 3 1017.3 - 0.0
21/04:30pm 25.6 21.8 -0.5 18 12.0 WNW 9 13 5 7 1017.3 - 0.0
21/04:00pm 25.0 20.1 -0.2 19 11.6 NW 15 22 8 12 1017.2 - 0.0
21/03:30pm 24.6 18.9 -0.5 19 11.5 NNW 19 24 10 13 1017.1 - 0.0
21/03:00pm 24.5 19.1 -1.3 18 11.6 N 17 24 9 13 1017.2 1017.2 0.0
21/02:30pm 23.7 17.9 -1.3 19 11.2 N 19 26 10 14 1017.4 - 0.0
21/02:00pm 23.1 17.1 -1.8 19 11.0 N 20 28 11 15 1017.6 - 0.0
21/01:30pm 22.2 16.2 -1.8 20 10.5 N 20 28 11 15 1018.1 - 0.0
21/01:00pm 21.6 15.6 -1.6 21 10.1 N 20 28 11 15 1018.5 - 0.0
21/12:30pm 20.3 13.8 -2.1 22 9.6 N 22 30 12 16 1019.1 - 0.0
21/12:00pm 19.9 13.4 -2.4 22 9.4 N 22 30 12 16 1019.6 1019.7 0.0
21/11:30am 18.6 11.3 -2.9 23 8.9 N 26 35 14 19 1020.2 - 0.0
21/11:00am 18.0 11.1 -2.8 24 8.6 N 24 32 13 17 1020.9 - 0.0
21/10:30am 16.6 9.7 -2.5 27 7.8 N 24 28 13 15 1021.3 - 0.0
21/10:00am 15.1 7.5 -2.3 30 7.0 N 28 32 15 17 1021.6 - 0.0
21/09:30am 14.1 8.2 -2.3 32 6.6 N 19 26 10 14 1021.6 - 0.0
21/09:00am 12.5 7.4 -2.1 36 5.7 N 15 22 8 12 1021.3 1021.3 0.0
21/08:30am 10.1 4.6 -2.2 42 4.7 N 17 20 9 11 1021.2 - 0.0
21/08:00am 9.2 4.1 -2.1 45 4.3 N 15 19 8 10 1021.1 - 0.0
21/07:30am 7.9 2.7 -2.7 47 3.9 N 15 24 8 13 1020.7 - 0.0
21/07:00am 8.9 3.4 -2.1 46 4.2 NNE 17 20 9 11 1020.3 - 0.0
21/06:30am 7.9 1.4 -2.4 48 3.8 NNE 22 26 12 14 1019.6 - 0.0
21/06:00am 7.3 2.5 -2.7 49 3.7 NNE 13 17 7 9 1019.9 1019.9 0.0
21/05:30am 8.0 3.6 -2.3 48 3.9 NNE 11 15 6 8 1020.2 - 0.0
21/05:00am 6.5 2.4 -3.2 50 3.5 N 9 13 5 7 1020.0 - 0.0
21/04:30am 7.1 3.7 -2.1 52 3.4 NE 6 9 3 5 1020.1 - 0.0
21/04:00am 7.5 4.0 -2.8 48 3.8 NE 6 11 3 6 1020.3 - 0.0
21/03:30am 7.8 3.3 -3.1 46 4.0 NE 11 13 6 7 1020.2 - 0.0
21/03:00am 8.8 3.2 -2.5 45 4.2 NE 17 19 9 10 1020.3 1020.3 0.0
21/02:30am 8.8 2.9 -2.5 45 4.2 NE 19 20 10 11 1020.5 - 0.0
21/02:00am 7.4 3.7 -3.2 47 3.9 ENE 7 11 4 6 1020.6 - 0.0
21/01:30am 7.0 2.8 -3.8 46 3.8 ENE 9 9 5 5 1020.9 - 0.0
21/01:00am 7.7 3.2 -3.5 45 4.1 NE 11 11 6 6 1021.1 - 0.0
21/12:30am 7.9 2.9 -3.9 43 4.2 NE 13 15 7 8 1021.3 - 0.0
21/12:00am 8.5 3.5 -4.3 40 4.6 NE 13 15 7 8 1021.4 1021.4 0.0
 
Date/Time
CST
Temp
°C
App
Temp
°C
Dew
Point
Rel
Hum
%
Delta-T
°C
Wind Press
QNH
hPa
Press
MSL
hPa
Rain
since 9 am
mm
Dir
 
Spd
km/h
Gust
km/h
Spd
kts
Gust
kts
20/11:30pm 8.7 3.7 -4.5 39 4.7 ENE 13 15 7 8 1021.5 - 0.0
20/11:00pm 8.5 3.4 -5.0 38 4.8 NE 13 15 7 8 1021.5 - 0.0
20/10:30pm 10.0 4.6 -4.4 36 5.2 NE 15 17 8 9 1021.5 - 0.0
20/10:00pm 10.0 4.6 -4.4 36 5.2 NNE 15 17 8 9 1021.5 - 0.0
20/09:30pm 12.3 6.6 -3.5 33 6.0 NNE 17 17 9 9 1021.6 - 0.0
20/09:00pm 12.0 6.7 -3.8 33 6.0 NNE 15 17 8 9 1021.6 1021.6 0.0
20/08:30pm 12.4 7.5 -3.4 33 6.1 NE 13 15 7 8 1021.5 - 0.0
20/08:00pm 12.8 7.9 -3.5 32 6.3 NE 13 15 7 8 1021.1 - 0.0
20/07:30pm 13.9 9.0 -3.4 30 6.7 NE 13 15 7 8 1020.9 - 0.0
20/07:00pm 14.3 9.8 -3.0 30 6.8 NE 11 13 6 7 1020.7 - 0.0
20/06:30pm 14.7 10.2 -3.1 29 7.0 ENE 11 11 6 6 1020.4 - 0.0
20/06:00pm 16.5 12.5 -2.5 27 7.7 NNE 9 13 5 7 1020.2 1020.2 0.0
20/05:30pm 17.6 13.6 -2.6 25 8.3 NE 9 15 5 8 1020.1 - 0.0
20/05:00pm 18.1 13.7 -2.2 25 8.5 N 11 15 6 8 1020.0 - 0.0
20/04:30pm 18.4 14.1 -2.0 25 8.6 N 11 19 6 10 1019.6 - 0.0
20/04:00pm 18.0 14.4 -1.8 26 8.3 NE 7 19 4 10 1019.6 - 0.0
20/03:30pm 17.9 13.6 -1.9 26 8.3 NE 11 17 6 9 1019.9 - 0.0

Other Formats:

Comma delimited format used in spreadsheet applications
http://www.bom.gov.au/fwo/IDS60801/IDS60801.94476.axf

JavaScript Object Notation format (JSON) in row-major order
http://www.bom.gov.au/fwo/IDS60801/IDS60801.94476.json